createdAt,value
2022-08-24T00:01:28.288Z,9.55
2022-08-24T00:03:59.840Z,10.65
2022-08-24T00:06:28.734Z,9.85
2022-08-24T00:08:58.332Z,9.00
2022-08-24T00:11:26.556Z,10.55
2022-08-24T00:13:54.944Z,10.60
2022-08-24T00:16:22.832Z,11.13
2022-08-24T00:18:50.448Z,10.73
2022-08-24T00:21:19.119Z,10.80
2022-08-24T00:23:49.656Z,10.45
2022-08-24T00:26:17.229Z,10.18
2022-08-24T00:28:48.620Z,11.35
2022-08-24T00:31:15.990Z,10.95
2022-08-24T00:33:43.650Z,11.70
2022-08-24T00:36:11.641Z,10.68
2022-08-24T00:38:39.677Z,11.25
2022-08-24T00:41:07.087Z,10.45
2022-08-24T00:43:35.300Z,10.93
2022-08-24T00:46:05.290Z,10.45
2022-08-24T00:48:34.469Z,10.73
2022-08-24T00:51:14.720Z,10.65
2022-08-24T00:53:56.003Z,10.05
2022-08-24T00:56:30.329Z,10.50
2022-08-24T00:59:01.163Z,10.02
2022-08-24T01:01:29.673Z,10.00
2022-08-24T01:03:57.798Z,10.30
2022-08-24T01:06:25.484Z,10.25
2022-08-24T01:08:56.258Z,9.77
2022-08-24T01:11:30.884Z,10.50
2022-08-24T01:14:04.193Z,9.63
2022-08-24T01:16:50.496Z,10.45
2022-08-24T01:19:39.983Z,10.40
2022-08-24T01:22:44.589Z,9.57
2022-08-24T01:25:12.395Z,9.48
2022-08-24T01:27:40.029Z,9.70
2022-08-24T01:30:11.861Z,9.40
2022-08-24T01:32:40.542Z,10.10
2022-08-24T01:35:09.275Z,10.18
2022-08-24T01:37:40.261Z,10.07
2022-08-24T01:40:11.591Z,10.15
2022-08-24T01:42:39.265Z,10.05
2022-08-24T01:45:07.336Z,9.20
2022-08-24T01:47:36.053Z,9.52
2022-08-24T01:50:04.981Z,9.40
2022-08-24T01:53:01.515Z,9.73
2022-08-24T01:55:22.666Z,9.30
2022-08-24T01:57:50.565Z,9.75
2022-08-24T02:00:18.439Z,9.63
2022-08-24T02:02:46.516Z,9.68
2022-08-24T02:05:15.549Z,11.02
2022-08-24T02:07:46.102Z,8.85
2022-08-24T02:10:15.095Z,9.93
2022-08-24T02:12:44.869Z,9.23
2022-08-24T02:15:12.995Z,9.98
2022-08-24T02:17:41.019Z,9.60
2022-08-24T02:20:09.231Z,9.52
2022-08-24T02:22:37.019Z,9.55
2022-08-24T02:25:06.086Z,9.60
2022-08-24T02:27:35.724Z,9.70
2022-08-24T02:30:03.769Z,10.32
2022-08-24T02:32:31.653Z,9.20
2022-08-24T02:34:59.145Z,9.48
2022-08-24T02:37:26.774Z,9.10
2022-08-24T02:39:55.159Z,10.70
2022-08-24T02:42:25.107Z,10.35
2022-08-24T02:44:53.810Z,10.25
2022-08-24T02:47:22.670Z,10.10
2022-08-24T02:50:07.931Z,10.68
2022-08-24T02:52:42.185Z,10.88
2022-08-24T02:55:13.350Z,10.35
2022-08-24T02:57:41.476Z,9.65
2022-08-24T03:00:12.289Z,9.88
2022-08-24T03:02:47.526Z,10.85
2022-08-24T03:05:15.564Z,9.98
2022-08-24T03:07:43.689Z,10.20
2022-08-24T03:10:12.030Z,10.18
2022-08-24T03:12:40.496Z,10.57
2022-08-24T03:15:10.762Z,9.98
2022-08-24T03:17:39.862Z,10.15
2022-08-24T03:20:12.032Z,10.45
2022-08-24T03:22:41.061Z,11.57
2022-08-24T03:25:09.170Z,10.80
2022-08-24T03:27:37.208Z,10.90
2022-08-24T03:30:05.749Z,11.60
2022-08-24T03:32:33.040Z,11.57
2022-08-24T03:35:02.495Z,10.68
2022-08-24T03:37:30.285Z,10.75
2022-08-24T03:39:57.934Z,11.80
2022-08-24T03:42:26.156Z,11.40
2022-08-24T03:44:53.575Z,10.95
2022-08-24T03:47:23.024Z,11.63
2022-08-24T03:49:51.439Z,11.98
2022-08-24T03:52:19.093Z,11.27
2022-08-24T03:54:49.537Z,12.95
2022-08-24T03:57:16.899Z,11.00
2022-08-24T03:59:46.674Z,11.25
2022-08-24T04:02:15.511Z,13.38
2022-08-24T04:04:43.177Z,13.48
2022-08-24T04:07:12.299Z,13.38
2022-08-24T04:09:40.080Z,12.20
2022-08-24T04:12:07.579Z,11.93
2022-08-24T04:14:35.488Z,11.40
2022-08-24T04:17:12.680Z,11.88
2022-08-24T04:19:58.024Z,12.98
2022-08-24T04:22:31.338Z,11.48
2022-08-24T04:24:58.914Z,11.38
2022-08-24T04:27:28.562Z,12.00
2022-08-24T04:29:57.035Z,11.32
2022-08-24T04:32:26.684Z,10.48
2022-08-24T04:34:56.521Z,10.65
2022-08-24T04:37:28.027Z,11.68
2022-08-24T04:39:57.953Z,13.00
2022-08-24T04:42:33.671Z,12.38
2022-08-24T04:45:01.724Z,11.43
2022-08-24T04:47:29.514Z,11.85
2022-08-24T04:49:56.904Z,11.65
2022-08-24T04:52:25.250Z,11.45
2022-08-24T04:54:53.049Z,10.95
2022-08-24T04:57:23.996Z,10.13
2022-08-24T04:59:56.739Z,10.38
2022-08-24T05:02:24.512Z,10.73
2022-08-24T05:04:57.333Z,10.73
2022-08-24T05:07:26.033Z,12.27
2022-08-24T05:09:53.437Z,11.80
2022-08-24T05:12:21.575Z,10.60
2022-08-24T05:14:58.899Z,11.02
2022-08-24T05:17:27.463Z,11.32
2022-08-24T05:19:54.923Z,10.88
2022-08-24T05:22:22.153Z,11.02
2022-08-24T05:24:54.408Z,10.95
2022-08-24T05:27:25.126Z,10.75
2022-08-24T05:29:56.564Z,11.27
2022-08-24T05:32:24.524Z,12.15
2022-08-24T05:34:53.694Z,10.73
2022-08-24T05:37:21.001Z,11.40
2022-08-24T05:40:11.436Z,10.88
2022-08-24T05:42:41.469Z,9.57
2022-08-24T05:45:10.920Z,9.80
2022-08-24T05:47:39.004Z,10.20
2022-08-24T05:50:19.480Z,9.43
2022-08-24T05:52:46.794Z,9.18
2022-08-24T05:55:14.441Z,9.23
2022-08-24T05:57:43.495Z,8.45
2022-08-24T06:00:16.763Z,9.20
2022-08-24T06:02:46.436Z,8.50
2022-08-24T06:05:14.884Z,7.97
2022-08-24T06:07:42.764Z,7.90
2022-08-24T06:10:35.250Z,8.35
2022-08-24T06:12:59.425Z,8.13
2022-08-24T06:15:27.313Z,7.68
2022-08-24T06:17:54.918Z,8.27
2022-08-24T06:20:22.751Z,8.07
2022-08-24T06:22:51.039Z,7.80
2022-08-24T06:25:37.995Z,8.20
2022-08-24T06:28:05.938Z,8.20
2022-08-24T06:30:35.007Z,8.80
2022-08-24T06:33:21.434Z,8.20
2022-08-24T06:35:52.240Z,8.25
2022-08-24T06:38:20.596Z,9.73
2022-08-24T06:40:51.384Z,9.25
2022-08-24T06:43:21.065Z,8.55
2022-08-24T06:45:55.287Z,8.85
2022-08-24T06:48:30.568Z,8.95
2022-08-24T06:50:59.574Z,8.85
2022-08-24T06:53:27.883Z,8.73
2022-08-24T06:55:59.400Z,8.88
2022-08-24T06:58:29.030Z,9.50
2022-08-24T07:00:57.714Z,8.75
2022-08-24T07:03:25.867Z,9.20
2022-08-24T07:06:05.238Z,9.38
2022-08-24T07:08:38.319Z,8.85
2022-08-24T07:11:06.618Z,8.52
2022-08-24T07:13:34.476Z,7.97
2022-08-24T07:16:02.502Z,8.35
2022-08-24T07:18:33.583Z,8.25
2022-08-24T07:21:04.996Z,8.07
2022-08-24T07:23:42.086Z,8.10
2022-08-24T07:29:05.063Z,7.57
2022-08-24T07:31:42.919Z,8.48
2022-08-24T07:34:31.312Z,7.45
2022-08-24T07:37:00.638Z,9.52
2022-08-24T07:39:29.023Z,7.85
2022-08-24T07:42:16.076Z,8.55
2022-08-24T07:44:45.952Z,8.88
2022-08-24T07:47:38.851Z,8.25
2022-08-24T07:50:03.915Z,8.40
2022-08-24T07:52:32.443Z,9.63
2022-08-24T07:54:59.727Z,8.48
2022-08-24T07:57:29.465Z,9.20
2022-08-24T07:59:59.535Z,9.55
2022-08-24T08:02:29.976Z,9.88
2022-08-24T08:05:02.725Z,9.07
2022-08-24T08:07:31.759Z,8.90
2022-08-24T08:10:02.092Z,8.10
2022-08-24T08:12:31.164Z,9.15
2022-08-24T08:14:59.029Z,8.90
2022-08-24T08:17:27.207Z,7.93
2022-08-24T08:19:55.162Z,8.98
2022-08-24T08:22:42.690Z,8.80
2022-08-24T08:25:31.874Z,8.27
2022-08-24T08:28:08.033Z,8.88
2022-08-24T08:30:47.170Z,9.65
2022-08-24T08:33:15.447Z,9.10
2022-08-24T08:35:44.460Z,8.30
2022-08-24T08:38:12.766Z,8.43
2022-08-24T08:40:46.404Z,8.52
2022-08-24T08:43:40.007Z,8.57
2022-08-24T08:46:16.981Z,8.27
2022-08-24T08:49:07.876Z,8.65
2022-08-24T08:51:57.114Z,8.07
2022-08-24T08:54:31.451Z,7.28
2022-08-24T08:57:20.655Z,9.05
2022-08-24T08:59:58.314Z,8.15
2022-08-24T09:02:48.036Z,7.97
2022-08-24T09:05:47.474Z,7.47
2022-08-24T09:08:41.833Z,8.02
2022-08-24T09:11:41.772Z,8.50
2022-08-24T09:14:12.256Z,8.23
2022-08-24T09:17:02.579Z,7.78
2022-08-24T09:19:52.834Z,8.45
2022-08-24T09:22:21.266Z,7.43
2022-08-24T09:24:55.061Z,8.15
2022-08-24T09:28:01.693Z,8.65
2022-08-24T09:30:39.929Z,7.85
2022-08-24T09:33:18.409Z,8.18
2022-08-24T09:36:05.983Z,7.05
2022-08-24T09:38:52.399Z,7.72
2022-08-24T09:41:41.523Z,7.32
2022-08-24T09:44:34.041Z,7.65
2022-08-24T09:47:28.185Z,8.30
2022-08-24T09:50:14.077Z,7.78
2022-08-24T09:52:52.281Z,9.00
2022-08-24T09:55:36.487Z,8.35
2022-08-24T09:58:41.269Z,8.20
2022-08-24T10:01:28.322Z,7.60
2022-08-24T10:04:24.257Z,7.38
2022-08-24T10:07:10.447Z,7.40
2022-08-24T10:09:56.785Z,8.38
2022-08-24T10:12:47.343Z,7.15
2022-08-24T10:15:21.534Z,7.18
2022-08-24T10:18:17.934Z,7.40
2022-08-24T10:21:25.656Z,7.85
2022-08-24T10:24:13.462Z,7.80
2022-08-24T10:26:51.144Z,7.90
2022-08-24T10:29:58.293Z,8.18
2022-08-24T10:32:47.801Z,7.70
2022-08-24T10:35:22.714Z,8.63
2022-08-24T10:38:46.275Z,8.40
2022-08-24T10:41:51.824Z,8.15
2022-08-24T10:44:43.827Z,7.90
2022-08-24T10:47:29.347Z,9.27
2022-08-24T10:50:02.796Z,8.02
2022-08-24T10:52:48.414Z,7.60
2022-08-24T10:55:42.506Z,8.30
2022-08-24T10:58:31.804Z,8.85
2022-08-24T11:01:27.621Z,8.85
2022-08-24T11:04:03.168Z,8.45
2022-08-24T11:06:37.100Z,8.52
2022-08-24T11:09:19.278Z,7.70
2022-08-24T11:11:49.981Z,7.32
2022-08-24T11:14:27.653Z,8.60
2022-08-24T11:17:15.239Z,8.05
2022-08-24T11:19:43.778Z,7.30
2022-08-24T11:22:31.724Z,8.48
2022-08-24T11:25:05.188Z,7.65
2022-08-24T11:27:38.504Z,7.85
2022-08-24T11:30:20.165Z,8.48
2022-08-24T11:32:58.655Z,7.88
2022-08-24T11:35:31.953Z,8.68
2022-08-24T11:38:32.442Z,7.25
2022-08-24T11:41:07.107Z,7.93
2022-08-24T11:43:41.258Z,8.32
2022-08-24T11:46:30.276Z,8.15
2022-08-24T11:49:32.752Z,8.20
2022-08-24T11:52:11.205Z,9.45
2022-08-24T11:54:51.199Z,8.85
2022-08-24T11:57:23.091Z,8.23
2022-08-24T12:00:13.814Z,8.13
2022-08-24T12:03:04.523Z,8.13
2022-08-24T12:06:17.268Z,8.13
2022-08-24T12:08:55.981Z,9.20
2022-08-24T12:11:31.601Z,9.15
2022-08-24T12:14:20.455Z,8.73
2022-08-24T12:17:01.278Z,9.52
2022-08-24T12:19:35.756Z,9.30
2022-08-24T12:22:06.290Z,8.38
2022-08-24T12:24:40.237Z,9.15
2022-08-24T12:27:21.648Z,7.43
2022-08-24T12:29:54.612Z,9.68
2022-08-24T12:32:25.938Z,8.80
2022-08-24T12:35:06.164Z,8.00
2022-08-24T12:37:47.213Z,8.38
2022-08-24T12:40:32.539Z,9.30
2022-08-24T12:43:45.905Z,9.52
2022-08-24T12:46:17.490Z,8.27
2022-08-24T12:49:12.871Z,9.38
2022-08-24T12:51:59.062Z,9.40
2022-08-24T12:54:29.119Z,9.15
2022-08-24T12:57:16.237Z,9.63
2022-08-24T12:59:47.900Z,8.35
2022-08-24T13:02:15.788Z,8.88
2022-08-24T13:04:57.069Z,9.50
2022-08-24T13:07:24.832Z,9.40
2022-08-24T13:09:58.318Z,9.02
2022-08-24T13:12:45.243Z,8.10
2022-08-24T13:15:28.363Z,9.23
2022-08-24T13:18:09.553Z,8.27
2022-08-24T13:20:37.223Z,9.57
2022-08-24T13:23:07.573Z,9.38
2022-08-24T13:25:58.791Z,9.38
2022-08-24T13:28:32.142Z,7.85
2022-08-24T13:31:06.797Z,9.18
2022-08-24T13:33:50.917Z,9.15
2022-08-24T13:36:36.995Z,7.68
2022-08-24T13:39:17.811Z,7.75
2022-08-24T13:41:49.599Z,8.43
2022-08-24T13:44:37.533Z,8.75
2022-08-24T13:47:28.326Z,8.48
2022-08-24T13:50:28.089Z,9.90
2022-08-24T13:53:34.085Z,8.35
2022-08-24T13:56:32.418Z,8.57
2022-08-24T13:59:16.733Z,8.35
2022-08-24T14:02:05.117Z,8.77
2022-08-24T14:04:47.615Z,8.80
2022-08-24T14:07:15.667Z,9.30
2022-08-24T14:10:14.460Z,7.88
2022-08-24T14:13:05.365Z,8.63
2022-08-24T14:16:14.105Z,9.27
2022-08-24T14:19:04.140Z,8.35
2022-08-24T14:21:47.597Z,7.38
2022-08-24T14:24:45.722Z,8.45
2022-08-24T14:27:35.440Z,7.88
2022-08-24T14:30:29.585Z,8.68
2022-08-24T14:33:00.199Z,9.45
2022-08-24T14:36:10.232Z,9.23
2022-08-24T14:38:54.644Z,7.93
2022-08-24T14:41:31.429Z,8.98
2022-08-24T14:44:36.878Z,9.35
2022-08-24T14:47:17.210Z,8.55
2022-08-24T14:49:45.243Z,8.85
2022-08-24T14:52:50.596Z,8.88
2022-08-24T14:55:56.927Z,8.10
2022-08-24T14:58:47.239Z,9.82
2022-08-24T15:01:56.702Z,9.10
2022-08-24T15:04:37.684Z,8.07
2022-08-24T15:07:27.274Z,8.43
2022-08-24T15:09:56.308Z,8.23
2022-08-24T15:12:37.365Z,8.50
2022-08-24T15:15:27.371Z,8.57
2022-08-24T15:17:58.391Z,8.25
2022-08-24T15:20:37.976Z,8.20
2022-08-24T15:23:11.853Z,9.55
2022-08-24T15:25:48.069Z,11.02
2022-08-24T15:28:25.891Z,9.25
2022-08-24T15:31:11.326Z,8.35
2022-08-24T15:33:57.909Z,8.98
2022-08-24T15:36:26.516Z,8.38
2022-08-24T15:38:54.618Z,7.90
2022-08-24T15:41:26.169Z,8.20
2022-08-24T15:43:57.156Z,9.40
2022-08-24T15:46:37.148Z,9.48
2022-08-24T15:49:28.987Z,10.18
2022-08-24T15:52:34.224Z,9.27
2022-08-24T15:55:04.509Z,8.57
2022-08-24T15:57:37.177Z,10.65
2022-08-24T16:00:15.309Z,8.90
2022-08-24T16:02:43.800Z,10.45
2022-08-24T16:05:24.470Z,9.02
2022-08-24T16:08:04.560Z,8.68
2022-08-24T16:10:41.472Z,9.25
2022-08-24T16:13:31.483Z,9.27
2022-08-24T16:16:11.156Z,10.02
2022-08-24T16:18:46.557Z,9.35
2022-08-24T16:21:33.962Z,10.57
2022-08-24T16:24:05.855Z,9.90
2022-08-24T16:26:53.370Z,9.57
2022-08-24T16:29:39.704Z,9.50
2022-08-24T16:32:21.538Z,10.90
2022-08-24T16:35:09.845Z,10.35
2022-08-24T16:37:39.467Z,11.20
2022-08-24T16:40:08.665Z,8.90
2022-08-24T16:42:37.005Z,8.43
2022-08-24T16:45:06.509Z,10.55
2022-08-24T16:47:34.107Z,10.18
2022-08-24T16:50:01.569Z,9.57
2022-08-24T16:52:29.691Z,10.55
2022-08-24T16:54:57.911Z,9.77
2022-08-24T16:57:31.605Z,8.77
2022-08-24T16:59:59.887Z,10.60
2022-08-24T17:02:27.399Z,8.73
2022-08-24T17:04:55.064Z,9.63
2022-08-24T17:07:25.615Z,9.40
2022-08-24T17:09:53.854Z,8.40
2022-08-24T17:12:21.557Z,8.38
2022-08-24T17:14:49.387Z,8.55
2022-08-24T17:17:21.353Z,9.00
2022-08-24T17:19:50.527Z,9.02
2022-08-24T17:22:18.443Z,9.25
2022-08-24T17:24:46.604Z,10.32
2022-08-24T17:27:14.938Z,9.75
2022-08-24T17:29:44.721Z,8.88
2022-08-24T17:32:13.306Z,8.20
2022-08-24T17:34:41.063Z,9.40
2022-08-24T17:37:09.831Z,9.07
2022-08-24T17:39:37.299Z,9.30
2022-08-24T17:42:13.745Z,9.88
2022-08-24T17:44:53.271Z,9.93
2022-08-24T17:47:20.991Z,10.20
2022-08-24T17:49:48.529Z,9.23
2022-08-24T17:52:16.318Z,9.95
2022-08-24T17:54:43.792Z,10.32
2022-08-24T17:57:12.802Z,12.73
2022-08-24T17:59:41.007Z,13.13
2022-08-24T18:02:13.118Z,11.05
2022-08-24T18:04:41.514Z,9.40
2022-08-24T18:07:12.608Z,12.43
2022-08-24T18:09:48.689Z,14.60
2022-08-24T18:12:18.543Z,9.95
2022-08-24T18:14:46.373Z,9.52
2022-08-24T18:17:21.090Z,8.63
2022-08-24T18:19:51.032Z,9.00
2022-08-24T18:22:18.495Z,9.50
2022-08-24T18:24:45.905Z,10.70
2022-08-24T18:27:22.426Z,9.75
2022-08-24T18:29:54.691Z,10.75
2022-08-24T18:37:24.531Z,9.93
2022-08-24T18:39:52.182Z,11.32
2022-08-24T18:42:19.668Z,12.70
2022-08-24T18:44:47.408Z,12.10
2022-08-24T18:47:15.779Z,12.90
2022-08-24T18:49:43.204Z,14.45
2022-08-24T18:52:13.777Z,14.88
2022-08-24T18:54:44.886Z,12.90
2022-08-24T18:57:12.709Z,12.70
2022-08-24T18:59:41.310Z,12.60
2022-08-24T19:02:31.429Z,14.75
2022-08-24T19:05:03.420Z,14.25
2022-08-24T19:07:32.758Z,13.55
2022-08-24T19:10:00.937Z,14.30
2022-08-24T19:12:31.498Z,15.63
2022-08-24T19:14:59.752Z,13.93
2022-08-24T19:17:29.038Z,12.00
2022-08-24T19:19:56.498Z,10.65
2022-08-24T19:22:25.303Z,13.50
2022-08-24T19:24:53.950Z,12.63
2022-08-24T19:27:21.649Z,12.95
2022-08-24T19:29:56.960Z,12.07
2022-08-24T19:32:27.201Z,11.55
2022-08-24T19:34:55.523Z,11.68
2022-08-24T19:37:23.552Z,10.98
2022-08-24T19:39:51.367Z,10.20
2022-08-24T19:42:19.254Z,10.07
2022-08-24T19:45:04.983Z,10.25
2022-08-24T19:47:34.765Z,9.93
2022-08-24T19:50:03.073Z,10.82
2022-08-24T19:52:32.742Z,8.98
2022-08-24T19:55:00.899Z,8.43
2022-08-24T19:57:34.051Z,9.48
2022-08-24T20:00:19.778Z,7.40
2022-08-24T20:02:48.872Z,8.18
2022-08-24T20:05:18.052Z,9.82
2022-08-24T20:07:46.647Z,9.57
2022-08-24T20:10:15.717Z,8.43
2022-08-24T20:12:43.726Z,8.43
2022-08-24T20:15:12.268Z,10.10
2022-08-24T20:17:39.783Z,8.70
2022-08-24T20:20:09.490Z,8.50
2022-08-24T20:22:37.499Z,10.88
2022-08-24T20:25:06.262Z,9.20
2022-08-24T20:27:34.184Z,10.07
2022-08-24T20:30:01.990Z,10.05
2022-08-24T20:32:29.789Z,10.55
2022-08-24T20:34:57.538Z,9.77
2022-08-24T20:37:27.755Z,10.48
2022-08-24T20:39:57.336Z,9.95
2022-08-24T20:42:28.028Z,9.27
2022-08-24T20:44:55.819Z,8.80
2022-08-24T20:47:23.745Z,9.43
2022-08-24T20:49:51.948Z,7.90
2022-08-24T20:52:19.381Z,8.70
2022-08-24T20:54:47.096Z,8.90
2022-08-24T20:57:18.334Z,9.13
2022-08-24T20:59:46.462Z,8.65
2022-08-24T21:02:14.262Z,8.00
2022-08-24T21:04:42.182Z,7.45
2022-08-24T21:07:11.868Z,7.20
2022-08-24T21:09:39.628Z,7.88
2022-08-24T21:12:08.346Z,6.90
2022-08-24T21:14:35.922Z,8.25
2022-08-24T21:17:05.808Z,8.82
2022-08-24T21:19:34.403Z,7.80
2022-08-24T21:22:02.002Z,6.70
2022-08-24T21:24:29.722Z,6.50
2022-08-24T21:26:58.742Z,6.90
2022-08-24T21:29:29.390Z,7.18
2022-08-24T21:32:15.485Z,7.43
2022-08-24T21:34:43.092Z,6.65
2022-08-24T21:37:13.124Z,6.47
2022-08-24T21:39:41.083Z,6.65
2022-08-24T21:42:09.815Z,6.65
2022-08-24T21:44:37.175Z,7.07
2022-08-24T21:47:06.733Z,6.78
2022-08-24T21:49:34.822Z,6.85
2022-08-24T21:52:02.527Z,6.03
2022-08-24T21:54:30.208Z,6.22
2022-08-24T21:56:58.474Z,6.15
2022-08-24T21:59:26.210Z,5.65
2022-08-24T22:01:53.760Z,6.30
2022-08-24T22:04:21.453Z,6.07
2022-08-24T22:06:50.123Z,5.80
2022-08-24T22:09:17.881Z,6.53
2022-08-24T22:11:45.824Z,7.38
2022-08-24T22:14:15.387Z,5.85
2022-08-24T22:16:45.065Z,6.68
2022-08-24T22:19:14.058Z,5.55
2022-08-24T22:21:47.874Z,5.70
2022-08-24T22:24:16.764Z,5.18
2022-08-24T22:26:44.288Z,5.60
2022-08-24T22:29:11.832Z,4.60
2022-08-24T22:31:42.210Z,4.85
2022-08-24T22:34:13.106Z,5.10
2022-08-24T22:36:47.419Z,5.05
2022-08-24T22:39:14.970Z,5.53
2022-08-24T22:41:42.481Z,5.95
2022-08-24T22:44:22.317Z,5.13
2022-08-24T22:46:55.784Z,5.05
2022-08-24T22:49:26.736Z,4.70
2022-08-24T22:51:54.342Z,4.53
2022-08-24T22:54:22.396Z,4.78
2022-08-24T22:56:52.654Z,5.10
2022-08-24T22:59:28.959Z,4.75
2022-08-24T23:01:58.047Z,4.57
2022-08-24T23:04:29.314Z,4.88
2022-08-24T23:06:57.109Z,5.13
2022-08-24T23:09:25.390Z,4.45
2022-08-24T23:11:52.809Z,5.05
2022-08-24T23:14:21.356Z,4.88
2022-08-24T23:16:50.069Z,5.32
2022-08-24T23:19:38.674Z,4.97
2022-08-24T23:22:08.319Z,5.15
2022-08-24T23:24:36.521Z,5.35
2022-08-24T23:27:05.177Z,5.25
2022-08-24T23:29:33.377Z,5.07
2022-08-24T23:32:01.756Z,5.07
2022-08-24T23:34:31.835Z,5.15
2022-08-24T23:36:59.856Z,5.22
2022-08-24T23:39:28.045Z,5.60
2022-08-24T23:41:55.785Z,4.95
2022-08-24T23:44:27.199Z,5.00
2022-08-24T23:46:55.497Z,5.60
2022-08-24T23:49:23.375Z,5.38
2022-08-24T23:51:52.534Z,5.43
2022-08-24T23:54:22.093Z,5.55
2022-08-24T23:56:50.623Z,5.38
2022-08-24T23:59:27.563Z,6.00
